Time;durP1;ratioP1;P1;durP2;ratioP2;P2;SDS_P1;SDS_P2;PMS_P1;PMS_P2;Temp;Humidity;BMP_temperature;BMP_pressure;BME280_temperature;BME280_humidity;BME280_pressure;Samples;Min_cycle;Max_cycle;Signal;HPM_P1;HPM_P2
2021/06/24 00:00:54;;;;;;;14.83;6.78;;;;;;;21.96;92.54;99403.94;1690719;85;20966;-65
2021/06/24 00:03:28;;;;;;;14.83;6.78;;;;;;;21.94;92.55;99403.23;1678488;84;21050;-66
2021/06/24 00:05:54;;;;;;;20.12;7.92;;;;;;;21.93;92.60;99402.05;1678518;84;21002;-65
2021/06/24 00:08:22;;;;;;;14.38;7.62;;;;;;;21.91;92.71;99396.89;1690458;85;21061;-66
2021/06/24 00:10:50;;;;;;;15.60;7.37;;;;;;;21.91;92.69;99391.59;1678063;85;21320;-66
2021/06/24 00:13:17;;;;;;;17.37;7.20;;;;;;;21.90;92.62;99398.34;1690466;85;21049;-66
2021/06/24 00:15:44;;;;;;;17.17;6.85;;;;;;;21.88;92.61;99399.80;1678267;85;21434;-66
2021/06/24 00:18:11;;;;;;;18.05;7.08;;;;;;;21.85;92.68;99404.05;1690575;85;20946;-66
2021/06/24 00:20:39;;;;;;;16.55;7.45;;;;;;;21.83;92.69;99387.94;1678366;85;21077;-66
2021/06/24 00:23:07;;;;;;;16.75;7.17;;;;;;;21.81;92.68;99390.72;1678108;85;21924;-66
2021/06/24 00:25:33;;;;;;;17.27;6.97;;;;;;;21.78;92.78;99392.31;1690347;85;20950;-66
2021/06/24 00:28:01;;;;;;;13.35;7.62;;;;;;;21.77;92.93;99384.05;1678141;85;21010;-65
2021/06/24 00:30:28;;;;;;;15.23;8.18;;;;;;;21.76;93.02;99386.34;1690395;84;21061;-65
2021/06/24 00:32:54;;;;;;;21.87;8.13;;;;;;;21.74;93.15;99392.27;1690429;85;21011;-65
2021/06/24 00:35:20;;;;;;;11.03;7.15;;;;;;;21.73;93.31;99385.29;1678168;85;21134;-65
2021/06/24 00:37:47;;;;;;;15.60;7.35;;;;;;;21.73;93.41;99393.72;1690529;83;21608;-65
2021/06/24 00:40:15;;;;;;;21.17;7.87;;;;;;;21.70;93.42;99390.86;1690392;85;21457;-65
2021/06/24 00:42:42;;;;;;;19.25;8.48;;;;;;;21.69;93.54;99384.37;1678021;84;21002;-65
2021/06/24 00:45:12;;;;;;;21.57;8.23;;;;;;;21.67;93.56;99392.44;1678080;85;20965;-65
2021/06/24 00:47:39;;;;;;;16.95;7.08;;;;;;;21.65;93.74;99396.55;1690399;83;21155;-65
2021/06/24 00:50:07;;;;;;;18.02;7.45;;;;;;;21.63;93.77;99393.20;1678083;85;20999;-65
2021/06/24 00:52:34;;;;;;;18.05;7.03;;;;;;;21.62;93.84;99399.45;1690409;85;20956;-65
2021/06/24 00:55:01;;;;;;;20.65;8.43;;;;;;;21.62;93.94;99398.63;1678381;84;21061;-65
2021/06/24 00:57:28;;;;;;;16.55;7.47;;;;;;;21.60;94.07;99396.59;1690357;85;21064;-65
2021/06/24 00:59:55;;;;;;;18.62;7.42;;;;;;;21.59;94.25;99396.24;1678066;85;23085;-65
2021/06/24 01:02:23;;;;;;;14.28;7.05;;;;;;;21.58;94.28;99399.89;1690619;84;20970;-65
2021/06/24 01:04:49;;;;;;;21.33;7.67;;;;;;;21.57;94.28;99396.41;1653976;85;21486;-65
2021/06/24 01:07:16;;;;;;;18.20;7.65;;;;;;;21.54;94.44;99400.64;1690481;85;21006;-66
2021/06/24 01:09:48;;;;;;;16.35;7.37;;;;;;;21.53;94.73;99405.58;1694477;82;21597;-65
2021/06/24 01:12:14;;;;;;;12.70;6.62;;;;;;;21.52;95.01;99403.91;1726172;82;21102;-65
2021/06/24 01:14:42;;;;;;;14.80;7.00;;;;;;;21.52;95.10;99396.45;1690318;84;20993;-65
2021/06/24 01:17:08;;;;;;;15.98;6.92;;;;;;;21.52;95.17;99399.94;1678298;85;21466;-65
2021/06/24 01:19:35;;;;;;;16.42;8.55;;;;;;;21.50;95.18;99392.61;1677999;85;20978;-65
2021/06/24 01:22:03;;;;;;;18.10;7.58;;;;;;;21.49;95.24;99400.20;1690521;85;20958;-65
2021/06/24 01:24:31;;;;;;;19.32;7.28;;;;;;;21.49;95.26;99403.33;1678142;85;21166;-65
2021/06/24 01:26:57;;;;;;;22.75;7.78;;;;;;;21.49;95.39;99404.65;1690479;84;21037;-65
2021/06/24 01:29:24;;;;;;;16.48;7.17;;;;;;;21.49;95.70;99404.65;1678151;85;20991;-65
2021/06/24 01:31:51;;;;;;;18.80;7.70;;;;;;;21.49;95.72;99409.46;1678321;85;21502;-65
2021/06/24 01:34:18;;;;;;;16.25;7.12;;;;;;;21.48;95.80;99409.11;1690467;85;21057;-65
2021/06/24 01:36:45;;;;;;;16.05;7.08;;;;;;;21.46;95.87;99396.97;1678026;85;21720;-65
2021/06/24 01:39:13;;;;;;;18.40;7.67;;;;;;;21.45;95.91;99398.78;1677970;85;20947;-65
2021/06/24 01:41:41;;;;;;;16.10;6.85;;;;;;;21.44;95.81;99401.08;1690507;84;21481;-65
2021/06/24 01:44:09;;;;;;;23.80;7.40;;;;;;;21.43;95.70;99401.20;1725090;82;21054;-65
2021/06/24 01:46:36;;;;;;;21.17;8.18;;;;;;;21.39;95.61;99403.28;1675781;85;20951;-65
2021/06/24 01:49:03;;;;;;;23.75;8.05;;;;;;;21.36;95.51;99402.25;1682310;84;21138;-66
2021/06/24 01:51:31;;;;;;;17.85;7.37;;;;;;;21.33;95.54;99405.16;1706061;84;20991;-66
2021/06/24 01:53:58;;;;;;;19.87;6.87;;;;;;;21.30;95.57;99406.25;1705855;84;20975;-66
2021/06/24 01:56:25;;;;;;;22.67;8.05;;;;;;;21.26;95.60;99407.48;1705844;84;21006;-66
2021/06/24 01:58:53;;;;;;;26.52;8.40;;;;;;;21.23;95.70;99414.36;1706056;84;21471;-66
2021/06/24 02:01:24;;;;;;;26.65;7.90;;;;;;;21.21;95.75;99411.48;1706366;82;21102;-66
2021/06/24 02:03:52;;;;;;;16.23;8.03;;;;;;;21.19;95.91;99410.75;1706413;82;21007;-66
2021/06/24 02:06:19;;;;;;;21.55;7.53;;;;;;;21.18;96.04;99408.59;1706092;84;21538;-66
2021/06/24 02:08:47;;;;;;;20.48;7.60;;;;;;;21.18;96.17;99417.84;1705982;84;21045;-66
2021/06/24 02:11:25;;;;;;;23.45;7.85;;;;;;;21.20;96.21;99417.75;1696792;82;21018;-66
2021/06/24 02:13:53;;;;;;;24.72;8.15;;;;;;;21.23;96.49;99421.45;1706766;82;21129;-66
2021/06/24 02:16:20;;;;;;;21.37;7.70;;;;;;;21.24;96.40;99425.30;1705794;84;21006;-66
2021/06/24 02:18:46;;;;;;;22.55;8.05;;;;;;;21.27;96.40;99422.39;1706128;84;21081;-66
2021/06/24 02:21:15;;;;;;;26.87;8.08;;;;;;;21.30;96.39;99423.45;1706297;83;21042;-65
2021/06/24 02:23:43;;;;;;;27.77;8.23;;;;;;;21.34;96.32;99428.00;1702523;82;21011;-65
2021/06/24 02:26:11;;;;;;;21.57;7.97;;;;;;;21.37;96.29;99428.22;1706523;82;21160;-65
2021/06/24 02:28:42;;;;;;;24.52;8.60;;;;;;;21.41;96.36;99431.77;1706802;82;21491;-65
2021/06/24 02:31:10;;;;;;;20.15;7.17;;;;;;;21.46;96.21;99425.59;1706327;82;21050;-65
2021/06/24 02:33:37;;;;;;;18.12;7.30;;;;;;;21.52;96.17;99424.23;1705949;84;21122;-65
2021/06/24 02:36:12;;;;;;;26.97;8.05;;;;;;;21.58;95.95;99420.55;1682819;84;21466;-65
2021/06/24 02:38:38;;;;;;;21.62;8.38;;;;;;;21.63;95.73;99424.12;1706107;84;21093;-65
2021/06/24 02:41:05;;;;;;;25.62;7.47;;;;;;;21.69;95.37;99421.42;1705766;84;20995;-65
2021/06/24 02:43:32;;;;;;;24.40;7.35;;;;;;;21.74;95.07;99420.06;1706171;84;21048;-65
2021/06/24 02:46:00;;;;;;;26.70;7.50;;;;;;;21.79;94.62;99424.44;1729972;82;21427;-65
2021/06/24 02:48:31;;;;;;;29.63;9.00;;;;;;;21.87;94.37;99431.71;1691410;82;21014;-65
2021/06/24 02:50:59;;;;;;;26.87;9.25;;;;;;;21.96;93.89;99427.77;1690819;83;21781;-65
2021/06/24 02:53:26;;;;;;;26.42;8.88;;;;;;;22.06;93.31;99424.32;1690246;85;21475;-66
2021/06/24 02:55:55;;;;;;;21.75;7.10;;;;;;;22.15;92.58;99423.02;1690373;83;20973;-65
2021/06/24 02:58:24;;;;;;;30.02;7.97;;;;;;;22.26;91.90;99419.39;1690429;85;21077;-65
2021/06/24 03:00:55;;;;;;;14.60;6.65;;;;;;;22.39;91.30;99422.59;1690226;82;21435;-65
2021/06/24 03:03:26;;;;;;;27.52;8.48;;;;;;;22.57;90.38;99420.94;1676022;83;21167;-65
2021/06/24 03:05:57;;;;;;;27.75;8.20;;;;;;;22.81;89.44;99420.49;1689625;83;21008;-65
2021/06/24 03:08:25;;;;;;;25.85;8.10;;;;;;;23.10;88.43;99417.78;1690406;85;21426;-65
2021/06/24 03:10:55;;;;;;;23.85;7.95;;;;;;;23.40;86.87;99427.30;1691552;82;21112;-65
2021/06/24 03:13:23;;;;;;;25.57;8.03;;;;;;;23.68;85.46;99431.68;1678090;85;20950;-65
2021/06/24 03:15:50;;;;;;;24.27;8.43;;;;;;;23.95;83.91;99426.85;1700906;83;21121;-65
2021/06/24 03:18:17;;;;;;;29.45;8.43;;;;;;;24.19;82.30;99436.87;1690302;84;20950;-65
2021/06/24 03:20:45;;;;;;;26.33;7.97;;;;;;;24.32;81.05;99433.89;1677963;85;20946;-65
2021/06/24 03:23:12;;;;;;;32.20;8.05;;;;;;;24.37;80.21;99429.80;1690403;85;21046;-65
2021/06/24 03:25:41;;;;;;;23.47;7.67;;;;;;;24.37;79.73;99431.62;1725707;82;21069;-65
2021/06/24 03:28:08;;;;;;;30.50;8.88;;;;;;;24.35;79.35;99431.77;1677971;85;21144;-65
2021/06/24 03:30:41;;;;;;;26.40;8.73;;;;;;;24.33;79.25;99428.92;1678415;83;21010;-65
2021/06/24 03:33:08;;;;;;;25.70;8.08;;;;;;;24.35;78.89;99438.41;1690587;85;21044;-65
2021/06/24 03:35:34;;;;;;;24.82;8.08;;;;;;;24.34;79.01;99430.59;1678027;85;21006;-65
2021/06/24 03:38:02;;;;;;;25.72;7.97;;;;;;;24.43;78.86;99424.34;1678000;85;21006;-65
2021/06/24 03:40:28;;;;;;;25.20;8.78;;;;;;;24.61;78.42;99430.97;1690547;84;21465;-65
2021/06/24 03:42:57;;;;;;;25.17;9.50;;;;;;;24.68;77.54;99430.21;1690424;83;21001;-66
2021/06/24 03:45:24;;;;;;;28.70;7.92;;;;;;;24.64;77.28;99426.68;1678190;85;20954;-66
2021/06/24 03:47:50;;;;;;;28.02;8.78;;;;;;;24.58;77.29;99436.63;1678068;85;21018;-66
2021/06/24 03:50:17;;;;;;;27.85;9.03;;;;;;;24.53;77.60;99431.76;1690421;84;21395;-66
2021/06/24 03:52:46;;;;;;;31.02;9.50;;;;;;;24.56;77.77;99429.29;1690635;84;21174;-66
2021/06/24 03:55:16;;;;;;;24.30;8.20;;;;;;;24.61;77.57;99424.32;1678125;84;20963;-66
2021/06/24 03:57:42;;;;;;;35.33;8.88;;;;;;;24.66;77.49;99421.55;1653707;85;21061;-66
2021/06/24 04:00:18;;;;;;;29.10;9.20;;;;;;;24.72;76.97;99419.61;1679046;83;21061;-66
2021/06/24 04:02:47;;;;;;;32.40;9.58;;;;;;;24.76;76.85;99417.98;1678750;84;21384;-66
2021/06/24 04:05:16;;;;;;;24.27;8.93;;;;;;;24.85;76.80;99424.52;1679289;83;21141;-66
2021/06/24 04:07:45;;;;;;;36.88;10.10;;;;;;;25.02;76.50;99419.67;1678046;85;20995;-66
2021/06/24 04:10:31;;;;;;;35.65;9.25;;;;;;;25.29;75.74;99417.34;1690570;85;21497;-66
2021/06/24 04:13:16;;;;;;;34.58;9.00;;;;;;;25.66;75.15;99416.19;1678087;85;20989;-66
2021/06/24 04:15:43;;;;;;;20.02;8.33;;;;;;;26.00;74.35;99410.29;1678300;84;21410;-66
2021/06/24 04:18:10;;;;;;;34.80;9.83;;;;;;;26.30;73.34;99409.38;1690415;84;21133;-66
2021/06/24 04:20:39;;;;;;;26.70;9.48;;;;;;;26.51;71.25;99409.73;1690656;83;21453;-66
2021/06/24 04:23:08;;;;;;;39.78;9.70;;;;;;;26.54;70.14;99412.06;1690301;82;20950;-66
2021/06/24 04:25:44;;;;;;;34.70;8.65;;;;;;;26.52;69.33;99417.23;1690814;82;21014;-66
2021/06/24 04:28:12;;;;;;;38.60;10.98;;;;;;;26.43;69.31;99413.22;1678114;85;20994;-66
2021/06/24 04:30:40;;;;;;;28.07;9.43;;;;;;;26.41;69.49;99413.05;1679205;83;21123;-66
2021/06/24 04:33:07;;;;;;;32.00;10.08;;;;;;;26.37;69.29;99413.90;1690351;84;20954;-66
2021/06/24 04:35:36;;;;;;;30.12;9.50;;;;;;;26.38;69.57;99409.37;1691792;82;20966;-67
2021/06/24 04:38:05;;;;;;;33.78;9.78;;;;;;;26.46;69.23;99411.22;1691885;82;21017;-66
2021/06/24 04:40:32;;;;;;;29.63;8.75;;;;;;;26.48;68.78;99417.22;1678144;85;21006;-66
2021/06/24 04:43:00;;;;;;;31.07;9.28;;;;;;;26.44;69.06;99415.38;1690475;84;21136;-66
2021/06/24 04:45:27;;;;;;;32.53;9.78;;;;;;;26.46;69.27;99423.22;1690339;84;20990;-66
2021/06/24 04:47:55;;;;;;;38.23;9.93;;;;;;;26.65;68.70;99419.72;1698418;82;20966;-66
2021/06/24 04:50:22;;;;;;;31.93;10.00;;;;;;;27.12;67.94;99423.03;1705931;84;21074;-66
2021/06/24 04:52:53;;;;;;;25.92;8.90;;;;;;;27.68;66.38;99425.20;1706283;84;21506;-65
2021/06/24 04:55:27;;;;;;;34.08;10.43;;;;;;;28.18;64.53;99422.06;1706042;83;21535;-66
2021/06/24 04:57:56;;;;;;;35.28;9.90;;;;;;;28.47;62.91;99426.75;1705760;84;21456;-67
2021/06/24 05:00:34;;;;;;;35.38;10.40;;;;;;;28.44;61.83;99427.94;1705924;84;20974;-66
2021/06/24 05:03:20;;;;;;;46.53;9.78;;;;;;;28.31;61.75;99421.03;1706014;84;21027;-65
2021/06/24 05:05:53;;;;;;;37.80;10.03;;;;;;;28.35;61.43;99424.19;1705989;84;20955;-68
2021/06/24 05:08:23;;;;;;;33.13;9.50;;;;;;;28.59;60.23;99421.80;1705911;84;21136;-66
2021/06/24 05:10:48;;;;;;;32.40;8.58;;;;;;;28.86;59.39;99427.12;1706104;82;21053;-65
2021/06/24 05:13:16;;;;;;;39.05;10.28;;;;;;;29.13;58.51;99431.38;1706012;84;21501;-65
2021/06/24 05:15:44;;;;;;;40.52;9.70;;;;;;;29.36;57.79;99435.82;1705859;83;21030;-65
2021/06/24 05:18:13;;;;;;;43.87;11.55;;;;;;;29.55;56.28;99437.97;1706164;83;20990;-65
2021/06/24 05:20:43;;;;;;;36.00;9.90;;;;;;;29.63;55.94;99435.67;1705936;83;21523;-65
2021/06/24 05:23:09;;;;;;;32.25;9.20;;;;;;;29.69;55.12;99441.13;1705833;84;21023;-65
2021/06/24 05:25:37;;;;;;;36.83;10.20;;;;;;;29.58;55.36;99436.23;1706026;84;21395;-64
2021/06/24 05:28:04;;;;;;;39.20;9.58;;;;;;;29.35;56.40;99443.53;1705965;84;20971;-66
2021/06/24 05:30:31;;;;;;;35.45;10.78;;;;;;;29.14;56.50;99441.58;1682037;84;20995;-66
2021/06/24 05:32:58;;;;;;;32.23;9.98;;;;;;;28.96;57.42;99444.61;1706243;84;21220;-66
2021/06/24 05:35:26;;;;;;;27.05;8.80;;;;;;;28.91;57.71;99448.33;1705908;84;20995;-66
2021/06/24 05:37:55;;;;;;;31.80;9.80;;;;;;;28.99;57.75;99459.45;1705979;83;20979;-66
2021/06/24 05:40:22;;;;;;;37.23;9.78;;;;;;;29.16;57.35;99466.34;1706027;84;21022;-66
2021/06/24 05:42:49;;;;;;;30.85;10.40;;;;;;;29.35;57.06;99463.62;1705731;84;21121;-64
2021/06/24 05:45:16;;;;;;;35.43;9.43;;;;;;;29.46;56.95;99464.02;1706059;83;21088;-66
2021/06/24 05:47:43;;;;;;;33.05;9.20;;;;;;;29.69;55.47;99457.73;1702360;83;21069;-65
2021/06/24 05:50:11;;;;;;;36.05;9.18;;;;;;;29.72;55.66;99463.55;1678001;84;21002;-66
2021/06/24 05:52:38;;;;;;;39.90;9.50;;;;;;;29.79;55.15;99473.00;1678254;85;21029;-65
2021/06/24 05:55:06;;;;;;;40.03;10.18;;;;;;;29.88;55.25;99466.53;1677955;85;20962;-64
2021/06/24 05:57:32;;;;;;;32.38;9.05;;;;;;;30.11;54.79;99469.10;1690506;84;21152;-64
2021/06/24 05:59:59;;;;;;;35.43;9.60;;;;;;;30.42;53.25;99474.17;1678139;85;21481;-65
2021/06/24 06:02:26;;;;;;;35.30;9.68;;;;;;;30.57;52.27;99464.77;1678047;84;21002;-64
2021/06/24 06:04:52;;;;;;;39.15;10.25;;;;;;;30.74;51.92;99469.68;1690307;83;21002;-65
2021/06/24 06:07:18;;;;;;;35.92;9.60;;;;;;;30.86;52.45;99463.77;1677990;85;21069;-65
2021/06/24 06:09:46;;;;;;;25.80;8.93;;;;;;;31.06;51.88;99461.56;1690351;83;21931;-67
2021/06/24 06:12:13;;;;;;;38.65;9.25;;;;;;;31.21;51.11;99455.28;1677878;85;21085;-65
2021/06/24 06:14:40;;;;;;;32.10;8.70;;;;;;;31.30;50.80;99454.94;1690275;85;21005;-64
2021/06/24 06:17:08;;;;;;;34.60;9.08;;;;;;;31.39;50.74;99454.25;1678007;85;21086;-66
2021/06/24 06:19:38;;;;;;;32.05;8.63;;;;;;;31.45;49.53;99450.78;1690532;83;21458;-63
2021/06/24 06:22:05;;;;;;;44.67;8.83;;;;;;;31.57;49.67;99452.41;1690233;83;21160;-65
2021/06/24 06:24:31;;;;;;;29.67;8.13;;;;;;;31.67;49.26;99450.20;1677833;84;21117;-65
2021/06/24 06:26:58;;;;;;;35.23;9.50;;;;;;;31.58;49.08;99447.32;1690224;83;21052;-65
2021/06/24 06:29:24;;;;;;;44.77;9.33;;;;;;;31.40;49.46;99446.51;1677895;85;20951;-67
2021/06/24 06:31:51;;;;;;;31.52;8.35;;;;;;;31.20;48.96;99446.39;1690419;84;21008;-66
2021/06/24 06:34:20;;;;;;;30.40;8.00;;;;;;;31.01;49.36;99438.98;1690347;85;21153;-66
2021/06/24 06:36:47;;;;;;;30.35;7.83;;;;;;;30.95;49.96;99445.16;1677717;85;21002;-63
2021/06/24 06:39:13;;;;;;;38.17;9.15;;;;;;;30.95;49.89;99429.87;1690219;84;22186;-64
2021/06/24 06:41:40;;;;;;;32.93;8.38;;;;;;;30.92;49.52;99424.06;1677840;85;21014;-64
2021/06/24 06:44:08;;;;;;;36.98;8.95;;;;;;;30.82;49.36;99411.80;1690464;84;21417;-66
2021/06/24 06:46:34;;;;;;;34.65;9.05;;;;;;;30.74;50.18;99413.30;1690577;85;21114;-64
2021/06/24 06:49:01;;;;;;;30.25;8.65;;;;;;;30.68;49.77;99419.44;1690135;84;21153;-66
2021/06/24 06:51:28;;;;;;;34.60;8.73;;;;;;;30.63;48.39;99415.66;1690134;83;21094;-66
2021/06/24 06:53:57;;;;;;;35.75;8.05;;;;;;;30.55;49.01;99415.30;1677855;84;20990;-67
2021/06/24 06:56:24;;;;;;;29.35;8.25;;;;;;;30.50;48.45;99421.72;1690402;84;20950;-68
2021/06/24 06:58:53;;;;;;;30.90;8.25;;;;;;;30.40;48.86;99419.86;1690217;84;21134;-63
2021/06/24 07:01:19;;;;;;;38.05;8.40;;;;;;;30.26;48.13;99419.42;1677709;84;20982;-69
2021/06/24 07:03:46;;;;;;;35.03;8.05;;;;;;;30.10;49.10;99419.16;1677969;85;20977;-66
2021/06/24 07:06:15;;;;;;;41.73;9.25;;;;;;;29.97;50.50;99410.95;1690288;85;21048;-66
2021/06/24 07:08:42;;;;;;;33.63;8.43;;;;;;;29.94;50.71;99414.00;1677966;85;21577;-66
2021/06/24 07:11:09;;;;;;;28.23;8.38;;;;;;;29.94;50.81;99418.86;1690411;85;21137;-65
2021/06/24 07:13:36;;;;;;;29.67;7.75;;;;;;;29.89;50.20;99423.95;1677818;85;20943;-67
2021/06/24 07:16:05;;;;;;;30.75;7.50;;;;;;;29.81;49.25;99422.70;1690207;83;21409;-67
2021/06/24 07:18:31;;;;;;;30.57;7.90;;;;;;;29.73;49.69;99417.47;1677972;84;21053;-67
2021/06/24 07:20:59;;;;;;;31.05;7.40;;;;;;;29.67;50.39;99414.19;1678120;84;21392;-68
2021/06/24 07:23:27;;;;;;;29.55;7.00;;;;;;;29.54;48.49;99413.53;1690369;85;21170;-66
2021/06/24 07:26:19;;;;;;;33.83;6.08;;;;;;;29.40;48.29;99406.31;1653051;85;21561;-68
2021/06/24 07:28:46;;;;;;;35.33;7.20;;;;;;;29.38;49.50;99411.81;1652999;86;21014;-66
2021/06/24 07:31:14;;;;;;;26.20;6.50;;;;;;;29.40;50.09;99409.82;1652966;85;21175;-67
2021/06/24 07:33:42;;;;;;;23.00;6.80;;;;;;;29.41;50.99;99410.14;1652555;86;21571;-66
2021/06/24 07:36:10;;;;;;;25.30;6.65;;;;;;;29.41;51.75;99410.14;1651502;86;21186;-67
2021/06/24 07:38:38;;;;;;;29.10;7.40;;;;;;;29.42;52.01;99408.30;1651367;87;21015;-66
2021/06/24 07:41:05;;;;;;;27.00;7.45;;;;;;;29.43;50.76;99414.81;1651663;87;21019;-66
2021/06/24 07:43:33;;;;;;;24.18;7.03;;;;;;;29.41;50.98;99420.86;1651550;87;21517;-66
2021/06/24 07:45:59;;;;;;;34.48;6.72;;;;;;;29.38;50.56;99417.69;1651590;86;20974;-67
2021/06/24 07:48:26;;;;;;;28.98;8.15;;;;;;;29.41;50.59;99413.33;1651493;87;21116;-66
2021/06/24 07:50:52;;;;;;;27.58;7.47;;;;;;;29.43;50.42;99410.80;1651374;87;21120;-65
2021/06/24 07:53:18;;;;;;;32.75;6.90;;;;;;;29.41;50.93;99403.95;1651488;87;20965;-65
2021/06/24 07:55:46;;;;;;;33.35;7.83;;;;;;;29.44;51.86;99410.28;1651461;87;20996;-66
2021/06/24 07:58:14;;;;;;;32.13;7.85;;;;;;;29.51;51.79;99411.72;1651386;87;21011;-66
2021/06/24 08:00:41;;;;;;;38.78;9.18;;;;;;;29.55;51.59;99407.66;1651537;87;21885;-65
2021/06/24 08:03:07;;;;;;;27.02;8.00;;;;;;;29.57;52.80;99405.63;1651629;86;20999;-66
2021/06/24 08:05:34;;;;;;;25.97;8.13;;;;;;;29.59;53.01;99403.56;1651816;86;20975;-65
2021/06/24 08:08:01;;;;;;;21.05;6.85;;;;;;;29.66;52.53;99409.34;1651496;87;21128;-67
2021/06/24 08:10:29;;;;;;;22.05;6.45;;;;;;;29.71;50.90;99409.61;1651472;85;21121;-66
2021/06/24 08:12:56;;;;;;;24.95;6.33;;;;;;;29.69;49.13;99411.65;1651676;87;21131;-66
2021/06/24 08:15:28;;;;;;;21.17;6.37;;;;;;;29.67;47.08;99403.47;1651334;87;20955;-66
2021/06/24 08:17:58;;;;;;;19.62;5.90;;;;;;;29.70;47.89;99409.80;1651415;87;21036;-65
2021/06/24 08:20:24;;;;;;;23.42;5.70;;;;;;;29.73;47.10;99416.13;1651711;86;21014;-65
2021/06/24 08:22:54;;;;;;;22.95;6.00;;;;;;;29.73;46.06;99426.34;1651511;87;21050;-66
2021/06/24 08:25:21;;;;;;;20.32;5.78;;;;;;;29.74;44.97;99432.53;1654621;85;21974;-67
2021/06/24 08:27:49;;;;;;;18.35;5.83;;;;;;;29.69;45.25;99433.09;1656641;86;20955;-66
2021/06/24 08:30:17;;;;;;;19.40;5.72;;;;;;;29.69;45.80;99426.91;1656626;86;20978;-65
2021/06/24 08:32:44;;;;;;;20.68;6.12;;;;;;;29.71;45.95;99428.38;1656783;86;21022;-66
2021/06/24 08:35:12;;;;;;;19.00;5.17;;;;;;;29.72;47.34;99431.38;1656731;86;21026;-65
2021/06/24 08:37:40;;;;;;;19.12;5.25;;;;;;;29.76;47.62;99418.44;1656709;86;21138;-65
2021/06/24 08:40:10;;;;;;;24.18;6.35;;;;;;;29.83;47.17;99420.67;1656614;86;21165;-66
2021/06/24 08:42:36;;;;;;;21.52;5.58;;;;;;;29.89;47.17;99421.78;1656625;86;21014;-66
2021/06/24 08:45:05;;;;;;;25.25;5.92;;;;;;;29.92;47.28;99413.36;1656965;86;21058;-66
2021/06/24 08:47:32;;;;;;;15.40;5.72;;;;;;;29.97;47.19;99409.61;1656753;86;21025;-66
2021/06/24 08:50:00;;;;;;;24.47;6.90;;;;;;;30.03;47.19;99404.33;1656614;86;21795;-65
2021/06/24 08:52:27;;;;;;;19.12;6.17;;;;;;;30.11;47.86;99402.05;1656602;86;21125;-65
2021/06/24 08:54:54;;;;;;;19.35;5.85;;;;;;;30.17;47.17;99403.98;1656677;86;21466;-65
2021/06/24 08:57:21;;;;;;;26.90;5.60;;;;;;;30.23;48.48;99400.50;1656825;85;21486;-66
2021/06/24 08:59:48;;;;;;;25.08;5.70;;;;;;;30.31;47.75;99402.24;1656917;86;21455;-65
2021/06/24 09:02:17;;;;;;;21.33;5.62;;;;;;;30.41;47.31;99409.45;1656741;86;22343;-67
2021/06/24 09:04:49;;;;;;;21.00;5.75;;;;;;;30.47;46.08;99404.66;1656788;86;21155;-66
2021/06/24 09:07:21;;;;;;;21.90;5.67;;;;;;;30.49;45.97;99406.64;1630204;86;20951;-65
2021/06/24 09:09:50;;;;;;;17.98;5.83;;;;;;;30.53;46.66;99404.41;1656660;86;21011;-66
2021/06/24 09:12:17;;;;;;;14.53;5.20;;;;;;;30.58;46.88;99391.25;1657131;86;21011;-64
2021/06/24 09:14:49;;;;;;;26.33;6.40;;;;;;;30.68;46.85;99394.44;1656763;86;21184;-65
2021/06/24 09:17:37;;;;;;;15.25;6.08;;;;;;;30.78;47.58;99399.78;1656774;86;20947;-65
2021/06/24 09:20:21;;;;;;;24.52;5.80;;;;;;;30.91;47.38;99400.41;1656900;86;21002;-65
2021/06/24 09:23:19;;;;;;;15.00;4.97;;;;;;;31.04;47.36;99399.14;1656753;86;21019;-66
2021/06/24 09:25:50;;;;;;;25.10;5.40;;;;;;;31.16;46.26;99398.13;1653571;86;21443;-66
2021/06/24 09:28:17;;;;;;;17.10;5.62;;;;;;;31.28;45.55;99398.39;1651641;87;21154;-65
2021/06/24 09:30:44;;;;;;;25.77;6.28;;;;;;;31.39;45.56;99401.84;1651696;87;21051;-66
2021/06/24 09:33:17;;;;;;;17.80;5.10;;;;;;;31.44;44.59;99401.57;1651377;87;21007;-65
2021/06/24 09:35:55;;;;;;;25.48;5.20;;;;;;;31.50;45.39;99403.98;1651600;87;21006;-66
2021/06/24 09:38:23;;;;;;;19.95;5.90;;;;;;;31.53;45.54;99399.55;1651490;87;21010;-66
2021/06/24 09:40:55;;;;;;;19.75;4.97;;;;;;;31.61;45.35;99400.70;1651512;87;21161;-66
2021/06/24 09:43:36;;;;;;;24.67;5.40;;;;;;;31.70;44.73;99394.69;1651497;87;21059;-66
2021/06/24 09:46:23;;;;;;;16.60;5.08;;;;;;;31.76;45.04;99396.06;1651703;87;21007;-66
2021/06/24 09:48:57;;;;;;;20.37;5.90;;;;;;;31.85;45.10;99398.05;1651213;86;21470;-65
2021/06/24 09:51:34;;;;;;;17.40;5.37;;;;;;;31.91;44.86;99390.52;1651863;87;21062;-65
2021/06/24 09:54:06;;;;;;;24.85;6.35;;;;;;;31.94;44.60;99391.46;1651545;87;21170;-64
2021/06/24 09:56:46;;;;;;;20.65;6.47;;;;;;;31.97;44.25;99382.16;1651153;85;21022;-65
2021/06/24 09:59:14;;;;;;;16.17;4.53;;;;;;;31.97;44.83;99388.89;1650409;87;21075;-64
2021/06/24 10:01:46;;;;;;;19.67;5.35;;;;;;;32.00;44.41;99386.59;1650551;87;21065;-65
2021/06/24 10:04:22;;;;;;;20.00;4.72;;;;;;;32.03;43.01;99390.23;1651669;87;21062;-66
2021/06/24 10:06:52;;;;;;;22.67;4.90;;;;;;;32.08;43.09;99383.72;1651607;87;22004;-65
2021/06/24 10:09:18;;;;;;;20.55;5.40;;;;;;;32.14;43.10;99381.57;1651314;87;21003;-65
2021/06/24 10:11:46;;;;;;;13.68;4.40;;;;;;;32.19;42.89;99380.94;1651438;87;21191;-65
2021/06/24 10:14:15;;;;;;;16.02;4.92;;;;;;;32.25;43.92;99377.46;1651619;87;21018;-67
2021/06/24 10:16:51;;;;;;;21.73;5.28;;;;;;;32.29;42.85;99373.84;1651514;87;21137;-65
2021/06/24 10:19:18;;;;;;;16.02;4.65;;;;;;;32.27;42.35;99377.26;1651506;87;21149;-64
2021/06/24 10:21:49;;;;;;;19.95;4.80;;;;;;;32.27;42.42;99372.70;1651302;87;20991;-65
2021/06/24 10:24:23;;;;;;;24.50;5.60;;;;;;;32.33;43.45;99372.41;1651626;87;20974;-64
2021/06/24 10:26:51;;;;;;;19.52;5.00;;;;;;;32.39;44.15;99368.36;1651710;85;21274;-66
2021/06/24 10:29:22;;;;;;;19.98;5.08;;;;;;;32.46;44.10;99368.37;1625727;87;20972;-65
2021/06/24 10:31:53;;;;;;;17.90;4.72;;;;;;;32.49;42.53;99367.44;1651762;87;21146;-65
2021/06/24 10:34:20;;;;;;;23.18;5.45;;;;;;;32.49;41.96;99360.71;1651651;87;21099;-64
2021/06/24 10:37:13;;;;;;;14.45;4.10;;;;;;;32.55;41.78;99364.97;1651805;87;20990;-65
2021/06/24 10:39:42;;;;;;;15.65;4.17;;;;;;;32.56;41.97;99362.06;1651736;87;21038;-66
2021/06/24 10:42:14;;;;;;;14.40;4.12;;;;;;;32.63;40.02;99358.00;1651632;87;21023;-65
2021/06/24 10:44:57;;;;;;;17.37;4.55;;;;;;;32.64;40.68;99350.23;1651968;87;21102;-64
2021/06/24 10:47:41;;;;;;;17.15;4.83;;;;;;;32.64;40.94;99354.27;1651855;85;20999;-65
2021/06/24 10:50:31;;;;;;;13.30;4.58;;;;;;;32.69;42.19;99349.09;1651699;85;21023;-66
2021/06/24 10:53:09;;;;;;;16.25;5.78;;;;;;;32.75;41.58;99351.83;1651748;86;20955;-66
2021/06/24 10:55:39;;;;;;;20.52;4.47;;;;;;;32.80;41.85;99353.86;1651765;87;20976;-67
2021/06/24 10:58:27;;;;;;;17.80;4.62;;;;;;;32.83;41.36;99346.20;1651642;85;21423;-65
2021/06/24 11:00:56;;;;;;;17.20;5.15;;;;;;;32.87;41.29;99342.57;1651643;87;21058;-66
2021/06/24 11:03:40;;;;;;;20.25;5.17;;;;;;;32.93;41.64;99343.09;1651947;87;21014;-65
2021/06/24 11:06:16;;;;;;;18.23;4.92;;;;;;;33.00;41.62;99345.75;1651671;87;20979;-65
2021/06/24 11:08:44;;;;;;;15.40;5.33;;;;;;;33.05;41.82;99343.25;1651699;86;21031;-65
2021/06/24 11:11:16;;;;;;;16.87;5.17;;;;;;;33.09;42.65;99339.93;1651627;87;21135;-66
2021/06/24 11:13:50;;;;;;;16.90;5.40;;;;;;;33.16;42.06;99332.66;1651628;87;20987;-66
2021/06/24 11:16:27;;;;;;;11.68;4.55;;;;;;;33.26;42.13;99332.75;1652056;87;21018;-66
2021/06/24 11:19:14;;;;;;;14.65;4.40;;;;;;;33.31;42.00;99335.12;1651981;85;21015;-67
2021/06/24 11:21:46;;;;;;;21.73;5.42;;;;;;;33.32;41.40;99329.21;1651929;87;21557;-66
2021/06/24 11:24:16;;;;;;;17.82;4.83;;;;;;;33.34;41.07;99329.31;1651845;87;21133;-66
2021/06/24 11:26:47;;;;;;;16.27;4.20;;;;;;;33.37;41.20;99332.09;1651545;85;20959;-64
2021/06/24 11:29:29;;;;;;;13.95;3.58;;;;;;;33.42;41.73;99328.22;1651491;86;21002;-65
2021/06/24 11:32:16;;;;;;;16.77;4.67;;;;;;;33.44;39.30;99318.05;1651778;86;20999;-66
2021/06/24 11:34:52;;;;;;;15.85;4.17;;;;;;;33.45;39.07;99324.58;1650799;86;21036;-65